TimeCST,TemperatureF,Dew PointF,Humidity,Sea Level PressureIn,VisibilityMPH,Wind Direction,Wind SpeedMPH,Gust SpeedMPH,PrecipitationIn,Events,Conditions,WindDirDegrees,DateUTC
12:53 AM,39.0,26.1,60,30.27,10.0,NE,5.8,-,N/A,,Clear,40,2013-01-22 06:53:00
1:53 AM,37.9,24.1,57,30.27,10.0,NE,6.9,-,N/A,,Partly Cloudy,50,2013-01-22 07:53:00
2:53 AM,39.0,23.0,53,30.30,10.0,NE,5.8,-,N/A,,Overcast,40,2013-01-22 08:53:00
3:53 AM,37.9,21.9,53,30.30,10.0,NE,9.2,-,N/A,,Overcast,50,2013-01-22 09:53:00
4:53 AM,37.0,21.9,54,30.31,10.0,NE,5.8,-,N/A,,Overcast,40,2013-01-22 10:53:00
5:53 AM,36.0,23.0,59,30.32,10.0,ENE,3.5,-,N/A,,Scattered Clouds,60,2013-01-22 11:53:00
6:53 AM,35.1,21.9,59,30.34,10.0,ENE,3.5,-,N/A,,Scattered Clouds,70,2013-01-22 12:53:00
7:53 AM,37.0,23.0,57,30.36,10.0,ESE,4.6,-,N/A,,Overcast,110,2013-01-22 13:53:00
8:53 AM,39.9,21.0,47,30.38,10.0,East,6.9,-,N/A,,Overcast,90,2013-01-22 14:53:00
10:53 AM,45.0,21.9,40,30.38,10.0,ENE,3.5,-,N/A,,Scattered Clouds,70,2013-01-22 16:53:00
11:53 AM,46.0,21.9,39,30.37,10.0,ESE,4.6,-,N/A,,Overcast,110,2013-01-22 17:53:00
12:53 PM,46.9,23.0,39,30.34,10.0,NE,4.6,-,N/A,,Overcast,50,2013-01-22 18:53:00
2:53 PM,48.9,25.0,39,30.31,10.0,ENE,3.5,-,N/A,,Overcast,70,2013-01-22 20:53:00
3:53 PM,50.0,26.1,39,30.31,10.0,Calm,Calm,-,N/A,,Mostly Cloudy,0,2013-01-22 21:53:00
4:53 PM,48.9,27.0,43,30.30,10.0,Calm,Calm,-,N/A,,Partly Cloudy,0,2013-01-22 22:53:00
5:53 PM,46.9,28.9,50,30.31,10.0,NE,3.5,-,N/A,,Partly Cloudy,40,2013-01-22 23:53:00
6:53 PM,48.0,30.0,50,30.31,5.0,NNE,3.5,-,N/A,,Haze,30,2013-01-23 00:53:00
7:53 PM,46.9,30.0,52,30.32,10.0,Calm,Calm,-,N/A,,Overcast,0,2013-01-23 01:53:00
8:53 PM,43.0,32.0,65,30.32,10.0,Calm,Calm,-,N/A,,Clear,0,2013-01-23 02:53:00
9:53 PM,42.1,32.0,67,30.32,10.0,Calm,Calm,-,N/A,,Clear,0,2013-01-23 03:53:00
10:53 PM,41.0,32.0,70,30.31,10.0,Calm,Calm,-,N/A,,Clear,0,2013-01-23 04:53:00
11:53 PM,39.0,33.1,79,30.31,10.0,SE,3.5,-,N/A,,Clear,140,2013-01-23 05:53:00